<?xml version="1.0" encoding="UTF-8" standalone="no" ?>
<gpx xmlns="http://www.topografix.com/GPX/1/1" xmlns:xsi="http://www.w3.org/2001/XMLSchema-instance" xsi:schemaLocation="http://www.topografix.com/GPX/1/1 http://www.topografix.com/GPX/1/1/gpx.xsd" version="1.1" creator="VisuGPX - https://www.visugpx.com">
  <metadata>
    <name>Le dolmen Peyro Fico et les avens 32km</name>
    <desc><![CDATA[VTT-Gard Le dolmen Peyro Fico et les avens 32km]]></desc>
  </metadata>
  <trk>
    <name><![CDATA[Le dolmen Peyro Fico et les avens - 10688 - UtagawaVTT.com]]></name>
    <trkseg>
      <trkpt lat="44.11523" lon="4.37139">
        <ele>300.596161</ele>
        <time>2015-09-05T11:38:57Z</time>
      </trkpt>
      <trkpt lat="44.11525" lon="4.37138">
        <ele>300.593353</ele>
        <time>2015-09-05T11:39:22Z</time>
      </trkpt>
      <trkpt lat="44.11532" lon="4.37154">
        <ele>300.855469</ele>
        <time>2015-09-05T11:43:00Z</time>
      </trkpt>
      <trkpt lat="44.11568" lon="4.37165">
        <ele>301.005646</ele>
        <time>2015-09-05T11:43:19Z</time>
      </trkpt>
      <trkpt lat="44.11613" lon="4.37138">
        <ele>301.564728</ele>
        <time>2015-09-05T11:43:33Z</time>
      </trkpt>
      <trkpt lat="44.11653" lon="4.37106">
        <ele>302</ele>
        <time>2015-09-05T11:43:46Z</time>
      </trkpt>
      <trkpt lat="44.1166" lon="4.37045">
        <ele>302.133362</ele>
        <time>2015-09-05T11:44:04Z</time>
      </trkpt>
      <trkpt lat="44.1167" lon="4.36982">
        <ele>303</ele>
        <time>2015-09-05T11:44:22Z</time>
      </trkpt>
      <trkpt lat="44.11695" lon="4.3679">
        <ele>303.774994</ele>
        <time>2015-09-05T11:45:01Z</time>
      </trkpt>
      <trkpt lat="44.11726" lon="4.36527">
        <ele>302.704987</ele>
        <time>2015-09-05T11:45:53Z</time>
      </trkpt>
      <trkpt lat="44.11759" lon="4.36268">
        <ele>302.980743</ele>
        <time>2015-09-05T11:46:42Z</time>
      </trkpt>
      <trkpt lat="44.11767" lon="4.36204">
        <ele>303.695007</ele>
        <time>2015-09-05T11:46:53Z</time>
      </trkpt>
      <trkpt lat="44.11799" lon="4.35943">
        <ele>308.761261</ele>
        <time>2015-09-05T11:47:39Z</time>
      </trkpt>
      <trkpt lat="44.11815" lon="4.35819">
        <ele>310.031982</ele>
        <time>2015-09-05T11:48:01Z</time>
      </trkpt>
      <trkpt lat="44.11811" lon="4.35758">
        <ele>310.669098</ele>
        <time>2015-09-05T11:48:13Z</time>
      </trkpt>
      <trkpt lat="44.11766" lon="4.35744">
        <ele>309.994171</ele>
        <time>2015-09-05T11:48:26Z</time>
      </trkpt>
      <trkpt lat="44.11721" lon="4.35736">
        <ele>309.911194</ele>
        <time>2015-09-05T11:48:39Z</time>
      </trkpt>
      <trkpt lat="44.11677" lon="4.35719">
        <ele>309.25946</ele>
        <time>2015-09-05T11:48:53Z</time>
      </trkpt>
      <trkpt lat="44.11631" lon="4.35709">
        <ele>308.897491</ele>
        <time>2015-09-05T11:49:06Z</time>
      </trkpt>
      <trkpt lat="44.11542" lon="4.35678">
        <ele>306.917511</ele>
        <time>2015-09-05T11:49:39Z</time>
      </trkpt>
      <trkpt lat="44.11502" lon="4.35651">
        <ele>306.005005</ele>
        <time>2015-09-05T11:49:57Z</time>
      </trkpt>
      <trkpt lat="44.11463" lon="4.35619">
        <ele>305.119995</ele>
        <time>2015-09-05T11:50:13Z</time>
      </trkpt>
      <trkpt lat="44.11421" lon="4.35592">
        <ele>305.034424</ele>
        <time>2015-09-05T11:50:30Z</time>
      </trkpt>
      <trkpt lat="44.11378" lon="4.35567">
        <ele>305</ele>
        <time>2015-09-05T11:50:45Z</time>
      </trkpt>
      <trkpt lat="44.11368" lon="4.35513">
        <ele>305.42865</ele>
        <time>2015-09-05T11:51:02Z</time>
      </trkpt>
      <trkpt lat="44.11381" lon="4.35385">
        <ele>307</ele>
        <time>2015-09-05T11:51:36Z</time>
      </trkpt>
      <trkpt lat="44.11386" lon="4.35322">
        <ele>307</ele>
        <time>2015-09-05T11:51:49Z</time>
      </trkpt>
      <trkpt lat="44.11391" lon="4.35258">
        <ele>306.684204</ele>
        <time>2015-09-05T11:52:01Z</time>
      </trkpt>
      <trkpt lat="44.11397" lon="4.35192">
        <ele>306.208191</ele>
        <time>2015-09-05T11:52:12Z</time>
      </trkpt>
      <trkpt lat="44.11402" lon="4.35126">
        <ele>305.72821</ele>
        <time>2015-09-05T11:52:22Z</time>
      </trkpt>
      <trkpt lat="44.11425" lon="4.34856">
        <ele>303.973633</ele>
        <time>2015-09-05T11:53:01Z</time>
      </trkpt>
      <trkpt lat="44.11429" lon="4.34793">
        <ele>304.040009</ele>
        <time>2015-09-05T11:53:10Z</time>
      </trkpt>
      <trkpt lat="44.11438" lon="4.34723">
        <ele>303.214996</ele>
        <time>2015-09-05T11:53:18Z</time>
      </trkpt>
      <trkpt lat="44.11438" lon="4.34657">
        <ele>303.152557</ele>
        <time>2015-09-05T11:53:24Z</time>
      </trkpt>
      <trkpt lat="44.11436" lon="4.34589">
        <ele>303</ele>
        <time>2015-09-05T11:53:32Z</time>
      </trkpt>
      <trkpt lat="44.11401" lon="4.34538">
        <ele>302.327118</ele>
        <time>2015-09-05T11:53:44Z</time>
      </trkpt>
      <trkpt lat="44.1135" lon="4.34519">
        <ele>302.318756</ele>
        <time>2015-09-05T11:53:55Z</time>
      </trkpt>
      <trkpt lat="44.11302" lon="4.34495">
        <ele>303.281128</ele>
        <time>2015-09-05T11:54:10Z</time>
      </trkpt>
      <trkpt lat="44.11213" lon="4.34433">
        <ele>304.619995</ele>
        <time>2015-09-05T11:54:43Z</time>
      </trkpt>
      <trkpt lat="44.11171" lon="4.34394">
        <ele>305.252777</ele>
        <time>2015-09-05T11:55:00Z</time>
      </trkpt>
      <trkpt lat="44.1114" lon="4.34338">
        <ele>306.097504</ele>
        <time>2015-09-05T11:55:19Z</time>
      </trkpt>
      <trkpt lat="44.11104" lon="4.34277">
        <ele>306.658752</ele>
        <time>2015-09-05T11:55:40Z</time>
      </trkpt>
      <trkpt lat="44.11089" lon="4.34199">
        <ele>307.522491</ele>
        <time>2015-09-05T11:55:59Z</time>
      </trkpt>
      <trkpt lat="44.11064" lon="4.34126">
        <ele>308.45874</ele>
        <time>2015-09-05T11:56:17Z</time>
      </trkpt>
      <trkpt lat="44.11024" lon="4.3408">
        <ele>309.297119</ele>
        <time>2015-09-05T11:56:32Z</time>
      </trkpt>
      <trkpt lat="44.10999" lon="4.34015">
        <ele>310.529999</ele>
        <time>2015-09-05T11:56:44Z</time>
      </trkpt>
      <trkpt lat="44.10954" lon="4.33964">
        <ele>311.987488</ele>
        <time>2015-09-05T11:56:52Z</time>
      </trkpt>
      <trkpt lat="44.10912" lon="4.33924">
        <ele>312.28891</ele>
        <time>2015-09-05T11:56:58Z</time>
      </trkpt>
      <trkpt lat="44.10842" lon="4.33823">
        <ele>313.181244</ele>
        <time>2015-09-05T11:57:24Z</time>
      </trkpt>
      <trkpt lat="44.10795" lon="4.33849">
        <ele>312.738739</ele>
        <time>2015-09-05T11:57:42Z</time>
      </trkpt>
      <trkpt lat="44.10752" lon="4.33879">
        <ele>312.233765</ele>
        <time>2015-09-05T11:57:58Z</time>
      </trkpt>
      <trkpt lat="44.10666" lon="4.33933">
        <ele>310.801605</ele>
        <time>2015-09-05T11:58:24Z</time>
      </trkpt>
      <trkpt lat="44.10622" lon="4.33962">
        <ele>309.958344</ele>
        <time>2015-09-05T11:58:35Z</time>
      </trkpt>
      <trkpt lat="44.10577" lon="4.33977">
        <ele>310.0625</ele>
        <time>2015-09-05T11:59:24Z</time>
      </trkpt>
      <trkpt lat="44.10568" lon="4.33983">
        <ele>310.337494</ele>
        <time>2015-09-05T12:01:21Z</time>
      </trkpt>
      <trkpt lat="44.10526" lon="4.34021">
        <ele>311.335175</ele>
        <time>2015-09-05T12:01:36Z</time>
      </trkpt>
      <trkpt lat="44.10481" lon="4.34051">
        <ele>311.337494</ele>
        <time>2015-09-05T12:01:47Z</time>
      </trkpt>
      <trkpt lat="44.10435" lon="4.3407">
        <ele>311.342194</ele>
        <time>2015-09-05T12:01:57Z</time>
      </trkpt>
      <trkpt lat="44.10386" lon="4.34094">
        <ele>310.523376</ele>
        <time>2015-09-05T12:02:07Z</time>
      </trkpt>
      <trkpt lat="44.10153" lon="4.34205">
        <ele>310.200562</ele>
        <time>2015-09-05T12:03:00Z</time>
      </trkpt>
      <trkpt lat="44.10106" lon="4.34205">
        <ele>309.876678</ele>
        <time>2015-09-05T12:03:13Z</time>
      </trkpt>
      <trkpt lat="44.10061" lon="4.34187">
        <ele>309.26001</ele>
        <time>2015-09-05T12:03:27Z</time>
      </trkpt>
      <trkpt lat="44.10015" lon="4.34173">
        <ele>307.306549</ele>
        <time>2015-09-05T12:03:39Z</time>
      </trkpt>
      <trkpt lat="44.09968" lon="4.34152">
        <ele>302.658142</ele>
        <time>2015-09-05T12:03:49Z</time>
      </trkpt>
      <trkpt lat="44.09919" lon="4.34164">
        <ele>297.883423</ele>
        <time>2015-09-05T12:03:58Z</time>
      </trkpt>
      <trkpt lat="44.09891" lon="4.34215">
        <ele>293.37381</ele>
        <time>2015-09-05T12:04:05Z</time>
      </trkpt>
      <trkpt lat="44.09883" lon="4.34279">
        <ele>287.745361</ele>
        <time>2015-09-05T12:04:11Z</time>
      </trkpt>
      <trkpt lat="44.09859" lon="4.34337">
        <ele>282.849243</ele>
        <time>2015-09-05T12:04:19Z</time>
      </trkpt>
      <trkpt lat="44.09826" lon="4.34394">
        <ele>279.535187</ele>
        <time>2015-09-05T12:05:31Z</time>
      </trkpt>
      <trkpt lat="44.09788" lon="4.3443">
        <ele>274.819977</ele>
        <time>2015-09-05T12:05:38Z</time>
      </trkpt>
      <trkpt lat="44.09747" lon="4.3446">
        <ele>270.589661</ele>
        <time>2015-09-05T12:05:44Z</time>
      </trkpt>
      <trkpt lat="44.09706" lon="4.34493">
        <ele>266.807495</ele>
        <time>2015-09-05T12:05:50Z</time>
      </trkpt>
      <trkpt lat="44.09666" lon="4.34523">
        <ele>263.965729</ele>
        <time>2015-09-05T12:05:59Z</time>
      </trkpt>
      <trkpt lat="44.09617" lon="4.34536">
        <ele>260.037506</ele>
        <time>2015-09-05T12:06:17Z</time>
      </trkpt>
      <trkpt lat="44.09569" lon="4.34519">
        <ele>254.867249</ele>
        <time>2015-09-05T12:06:25Z</time>
      </trkpt>
      <trkpt lat="44.09521" lon="4.34518">
        <ele>250.876312</ele>
        <time>2015-09-05T12:06:31Z</time>
      </trkpt>
      <trkpt lat="44.09483" lon="4.34557">
        <ele>247.95932</ele>
        <time>2015-09-05T12:06:37Z</time>
      </trkpt>
      <trkpt lat="44.09436" lon="4.34583">
        <ele>245.312271</ele>
        <time>2015-09-05T12:06:43Z</time>
      </trkpt>
      <trkpt lat="44.09393" lon="4.34622">
        <ele>241.934525</ele>
        <time>2015-09-05T12:06:49Z</time>
      </trkpt>
      <trkpt lat="44.09362" lon="4.34671">
        <ele>239.225311</ele>
        <time>2015-09-05T12:06:54Z</time>
      </trkpt>
      <trkpt lat="44.09329" lon="4.34719">
        <ele>237.440033</ele>
        <time>2015-09-05T12:06:59Z</time>
      </trkpt>
      <trkpt lat="44.09299" lon="4.34766">
        <ele>234.322952</ele>
        <time>2015-09-05T12:07:04Z</time>
      </trkpt>
      <trkpt lat="44.09275" lon="4.34827">
        <ele>228.626297</ele>
        <time>2015-09-05T12:07:10Z</time>
      </trkpt>
      <trkpt lat="44.09246" lon="4.34877">
        <ele>226.264618</ele>
        <time>2015-09-05T12:07:16Z</time>
      </trkpt>
      <trkpt lat="44.09204" lon="4.34897">
        <ele>219.481659</ele>
        <time>2015-09-05T12:07:25Z</time>
      </trkpt>
      <trkpt lat="44.09177" lon="4.34943">
        <ele>213.393066</ele>
        <time>2015-09-05T12:08:54Z</time>
      </trkpt>
      <trkpt lat="44.09141" lon="4.34989">
        <ele>210.925308</ele>
        <time>2015-09-05T12:09:07Z</time>
      </trkpt>
      <trkpt lat="44.09106" lon="4.35029">
        <ele>210.598206</ele>
        <time>2015-09-05T12:09:16Z</time>
      </trkpt>
      <trkpt lat="44.09069" lon="4.35074">
        <ele>211.043137</ele>
        <time>2015-09-05T12:09:25Z</time>
      </trkpt>
      <trkpt lat="44.0904" lon="4.35127">
        <ele>209.520004</ele>
        <time>2015-09-05T12:09:33Z</time>
      </trkpt>
      <trkpt lat="44.09002" lon="4.3516">
        <ele>207.338745</ele>
        <time>2015-09-05T12:09:40Z</time>
      </trkpt>
      <trkpt lat="44.08985" lon="4.35226">
        <ele>204.282501</ele>
        <time>2015-09-05T12:09:48Z</time>
      </trkpt>
      <trkpt lat="44.08945" lon="4.35254">
        <ele>203.339996</ele>
        <time>2015-09-05T12:09:56Z</time>
      </trkpt>
      <trkpt lat="44.08897" lon="4.35266">
        <ele>202.854706</ele>
        <time>2015-09-05T12:10:05Z</time>
      </trkpt>
      <trkpt lat="44.08851" lon="4.3526">
        <ele>203.020554</ele>
        <time>2015-09-05T12:10:27Z</time>
      </trkpt>
      <trkpt lat="44.08807" lon="4.35231">
        <ele>201.936172</ele>
        <time>2015-09-05T12:10:40Z</time>
      </trkpt>
      <trkpt lat="44.08761" lon="4.35208">
        <ele>199.914063</ele>
        <time>2015-09-05T12:10:50Z</time>
      </trkpt>
      <trkpt lat="44.08716" lon="4.35194">
        <ele>197.580002</ele>
        <time>2015-09-05T12:10:57Z</time>
      </trkpt>
      <trkpt lat="44.08623" lon="4.35163">
        <ele>192.988922</ele>
        <time>2015-09-05T12:11:07Z</time>
      </trkpt>
      <trkpt lat="44.08574" lon="4.35152">
        <ele>196.014481</ele>
        <time>2015-09-05T12:11:14Z</time>
      </trkpt>
      <trkpt lat="44.08537" lon="4.35123">
        <ele>198.541992</ele>
        <time>2015-09-05T12:11:29Z</time>
      </trkpt>
      <trkpt lat="44.08505" lon="4.35075">
        <ele>198.619949</ele>
        <time>2015-09-05T12:11:49Z</time>
      </trkpt>
      <trkpt lat="44.08472" lon="4.35029">
        <ele>198.943771</ele>
        <time>2015-09-05T12:12:07Z</time>
      </trkpt>
      <trkpt lat="44.08434" lon="4.34993">
        <ele>200.289413</ele>
        <time>2015-09-05T12:12:26Z</time>
      </trkpt>
      <trkpt lat="44.08391" lon="4.35001">
        <ele>203.104584</ele>
        <time>2015-09-05T12:12:48Z</time>
      </trkpt>
      <trkpt lat="44.08348" lon="4.35025">
        <ele>208.520004</ele>
        <time>2015-09-05T12:13:10Z</time>
      </trkpt>
      <trkpt lat="44.083" lon="4.35032">
        <ele>212.611664</ele>
        <time>2015-09-05T12:13:31Z</time>
      </trkpt>
      <trkpt lat="44.08254" lon="4.35033">
        <ele>214.652557</ele>
        <time>2015-09-05T12:13:50Z</time>
      </trkpt>
      <trkpt lat="44.08264" lon="4.3501">
        <ele>213.590485</ele>
        <time>2015-09-05T12:14:06Z</time>
      </trkpt>
      <trkpt lat="44.08311" lon="4.34999">
        <ele>210.032959</ele>
        <time>2015-09-05T12:14:23Z</time>
      </trkpt>
      <trkpt lat="44.08355" lon="4.34975">
        <ele>209.901031</ele>
        <time>2015-09-05T12:14:44Z</time>
      </trkpt>
      <trkpt lat="44.08377" lon="4.34925">
        <ele>215.34761</ele>
        <time>2015-09-05T12:15:07Z</time>
      </trkpt>
      <trkpt lat="44.08355" lon="4.34876">
        <ele>220.536362</ele>
        <time>2015-09-05T12:15:35Z</time>
      </trkpt>
      <trkpt lat="44.08271" lon="4.34823">
        <ele>237.694305</ele>
        <time>2015-09-05T12:16:37Z</time>
      </trkpt>
      <trkpt lat="44.08251" lon="4.3477">
        <ele>243.905487</ele>
        <time>2015-09-05T12:17:11Z</time>
      </trkpt>
      <trkpt lat="44.08293" lon="4.34753">
        <ele>240.63797</ele>
        <time>2015-09-05T12:17:35Z</time>
      </trkpt>
      <trkpt lat="44.0826" lon="4.34728">
        <ele>243.83075</ele>
        <time>2015-09-05T12:17:55Z</time>
      </trkpt>
      <trkpt lat="44.08218" lon="4.34705">
        <ele>246.81012</ele>
        <time>2015-09-05T12:18:15Z</time>
      </trkpt>
      <trkpt lat="44.08181" lon="4.34669">
        <ele>249.539993</ele>
        <time>2015-09-05T12:18:34Z</time>
      </trkpt>
      <trkpt lat="44.08145" lon="4.34629">
        <ele>250.560547</ele>
        <time>2015-09-05T12:18:54Z</time>
      </trkpt>
      <trkpt lat="44.08112" lon="4.34588">
        <ele>250.687897</ele>
        <time>2015-09-05T12:19:13Z</time>
      </trkpt>
      <trkpt lat="44.08072" lon="4.34549">
        <ele>252.564667</ele>
        <time>2015-09-05T12:19:31Z</time>
      </trkpt>
      <trkpt lat="44.08039" lon="4.34506">
        <ele>252.360001</ele>
        <time>2015-09-05T12:19:45Z</time>
      </trkpt>
      <trkpt lat="44.08013" lon="4.34453">
        <ele>254.072449</ele>
        <time>2015-09-05T12:20:00Z</time>
      </trkpt>
      <trkpt lat="44.07988" lon="4.34422">
        <ele>256.534607</ele>
        <time>2015-09-05T12:23:45Z</time>
      </trkpt>
      <trkpt lat="44.07976" lon="4.34362">
        <ele>260.600006</ele>
        <time>2015-09-05T12:24:59Z</time>
      </trkpt>
      <trkpt lat="44.07955" lon="4.34306">
        <ele>262.857941</ele>
        <time>2015-09-05T12:25:23Z</time>
      </trkpt>
      <trkpt lat="44.0795" lon="4.34241">
        <ele>266.782501</ele>
        <time>2015-09-05T12:25:50Z</time>
      </trkpt>
      <trkpt lat="44.07942" lon="4.3418">
        <ele>270.484985</ele>
        <time>2015-09-05T12:26:19Z</time>
      </trkpt>
      <trkpt lat="44.07935" lon="4.34116">
        <ele>272.75</ele>
        <time>2015-09-05T12:26:46Z</time>
      </trkpt>
      <trkpt lat="44.07936" lon="4.34056">
        <ele>272.241241</ele>
        <time>2015-09-05T12:28:28Z</time>
      </trkpt>
      <trkpt lat="44.07945" lon="4.33996">
        <ele>271.280975</ele>
        <time>2015-09-05T12:29:07Z</time>
      </trkpt>
      <trkpt lat="44.07971" lon="4.33939">
        <ele>269.756439</ele>
        <time>2015-09-05T12:29:18Z</time>
      </trkpt>
      <trkpt lat="44.08001" lon="4.33888">
        <ele>268.126495</ele>
        <time>2015-09-05T12:29:28Z</time>
      </trkpt>
      <trkpt lat="44.08036" lon="4.33845">
        <ele>268.255981</ele>
        <time>2015-09-05T12:29:40Z</time>
      </trkpt>
      <trkpt lat="44.08078" lon="4.33817">
        <ele>269.56723</ele>
        <time>2015-09-05T12:29:55Z</time>
      </trkpt>
      <trkpt lat="44.08115" lon="4.3378">
        <ele>270.323181</ele>
        <time>2015-09-05T12:30:10Z</time>
      </trkpt>
      <trkpt lat="44.08159" lon="4.33752">
        <ele>268.689606</ele>
        <time>2015-09-05T12:30:22Z</time>
      </trkpt>
      <trkpt lat="44.08194" lon="4.33713">
        <ele>264.81778</ele>
        <time>2015-09-05T12:30:32Z</time>
      </trkpt>
      <trkpt lat="44.08223" lon="4.33661">
        <ele>263.314545</ele>
        <time>2015-09-05T12:30:41Z</time>
      </trkpt>
      <trkpt lat="44.08264" lon="4.33628">
        <ele>266.491394</ele>
        <time>2015-09-05T12:30:53Z</time>
      </trkpt>
      <trkpt lat="44.08286" lon="4.33573">
        <ele>270.351196</ele>
        <time>2015-09-05T12:31:09Z</time>
      </trkpt>
      <trkpt lat="44.08317" lon="4.33541">
        <ele>272.551605</ele>
        <time>2015-09-05T12:31:28Z</time>
      </trkpt>
      <trkpt lat="44.08362" lon="4.33555">
        <ele>273.948151</ele>
        <time>2015-09-05T12:31:49Z</time>
      </trkpt>
      <trkpt lat="44.08405" lon="4.33534">
        <ele>273.543213</ele>
        <time>2015-09-05T12:32:09Z</time>
      </trkpt>
      <trkpt lat="44.08439" lon="4.33492">
        <ele>274.113373</ele>
        <time>2015-09-05T12:32:23Z</time>
      </trkpt>
      <trkpt lat="44.08471" lon="4.33444">
        <ele>277.394043</ele>
        <time>2015-09-05T12:32:37Z</time>
      </trkpt>
      <trkpt lat="44.08493" lon="4.33387">
        <ele>278.915222</ele>
        <time>2015-09-05T12:32:49Z</time>
      </trkpt>
      <trkpt lat="44.08483" lon="4.33325">
        <ele>276.671265</ele>
        <time>2015-09-05T12:33:02Z</time>
      </trkpt>
      <trkpt lat="44.08504" lon="4.33268">
        <ele>277.206146</ele>
        <time>2015-09-05T12:33:16Z</time>
      </trkpt>
      <trkpt lat="44.08547" lon="4.33249">
        <ele>279.664429</ele>
        <time>2015-09-05T12:33:41Z</time>
      </trkpt>
      <trkpt lat="44.08593" lon="4.33232">
        <ele>280.447601</ele>
        <time>2015-09-05T12:34:01Z</time>
      </trkpt>
      <trkpt lat="44.08668" lon="4.33154">
        <ele>279.598907</ele>
        <time>2015-09-05T12:34:33Z</time>
      </trkpt>
      <trkpt lat="44.08713" lon="4.33148">
        <ele>280.566803</ele>
        <time>2015-09-05T12:34:53Z</time>
      </trkpt>
      <trkpt lat="44.08747" lon="4.33106">
        <ele>282.476074</ele>
        <time>2015-09-05T12:35:21Z</time>
      </trkpt>
      <trkpt lat="44.08776" lon="4.33057">
        <ele>286.358826</ele>
        <time>2015-09-05T12:35:37Z</time>
      </trkpt>
      <trkpt lat="44.0881" lon="4.33012">
        <ele>289.929504</ele>
        <time>2015-09-05T12:35:52Z</time>
      </trkpt>
      <trkpt lat="44.08832" lon="4.32953">
        <ele>289.059326</ele>
        <time>2015-09-05T12:36:06Z</time>
      </trkpt>
      <trkpt lat="44.0884" lon="4.32887">
        <ele>288.004486</ele>
        <time>2015-09-05T12:36:17Z</time>
      </trkpt>
      <trkpt lat="44.08835" lon="4.32823">
        <ele>285.956512</ele>
        <time>2015-09-05T12:36:28Z</time>
      </trkpt>
      <trkpt lat="44.08804" lon="4.32772">
        <ele>282.886169</ele>
        <time>2015-09-05T12:36:40Z</time>
      </trkpt>
      <trkpt lat="44.08786" lon="4.32713">
        <ele>281.861023</ele>
        <time>2015-09-05T12:36:58Z</time>
      </trkpt>
      <trkpt lat="44.08766" lon="4.32586">
        <ele>283.32724</ele>
        <time>2015-09-05T12:37:26Z</time>
      </trkpt>
      <trkpt lat="44.08752" lon="4.32521">
        <ele>284.517731</ele>
        <time>2015-09-05T12:37:38Z</time>
      </trkpt>
      <trkpt lat="44.08732" lon="4.32461">
        <ele>283.392365</ele>
        <time>2015-09-05T12:37:50Z</time>
      </trkpt>
      <trkpt lat="44.0872" lon="4.32398">
        <ele>280.423035</ele>
        <time>2015-09-05T12:38:01Z</time>
      </trkpt>
      <trkpt lat="44.08699" lon="4.32336">
        <ele>278.180542</ele>
        <time>2015-09-05T12:38:11Z</time>
      </trkpt>
      <trkpt lat="44.08693" lon="4.32269">
        <ele>279.295929</ele>
        <time>2015-09-05T12:38:22Z</time>
      </trkpt>
      <trkpt lat="44.08665" lon="4.32232">
        <ele>279.190582</ele>
        <time>2015-09-05T12:38:33Z</time>
      </trkpt>
      <trkpt lat="44.08621" lon="4.32239">
        <ele>279.40509</ele>
        <time>2015-09-05T12:38:47Z</time>
      </trkpt>
      <trkpt lat="44.08574" lon="4.32244">
        <ele>280.595184</ele>
        <time>2015-09-05T12:39:06Z</time>
      </trkpt>
      <trkpt lat="44.0853" lon="4.32226">
        <ele>280.798126</ele>
        <time>2015-09-05T12:39:36Z</time>
      </trkpt>
      <trkpt lat="44.08486" lon="4.32205">
        <ele>279.65625</ele>
        <time>2015-09-05T12:39:49Z</time>
      </trkpt>
      <trkpt lat="44.08394" lon="4.32177">
        <ele>277.895538</ele>
        <time>2015-09-05T12:40:05Z</time>
      </trkpt>
      <trkpt lat="44.08354" lon="4.32143">
        <ele>275.213867</ele>
        <time>2015-09-05T12:40:13Z</time>
      </trkpt>
      <trkpt lat="44.08312" lon="4.32105">
        <ele>273.522095</ele>
        <time>2015-09-05T12:40:21Z</time>
      </trkpt>
      <trkpt lat="44.08222" lon="4.32056">
        <ele>273.957886</ele>
        <time>2015-09-05T12:40:38Z</time>
      </trkpt>
      <trkpt lat="44.08179" lon="4.32028">
        <ele>272.709961</ele>
        <time>2015-09-05T12:40:46Z</time>
      </trkpt>
      <trkpt lat="44.08135" lon="4.32015">
        <ele>272.30899</ele>
        <time>2015-09-05T12:40:54Z</time>
      </trkpt>
      <trkpt lat="44.08088" lon="4.32021">
        <ele>272.743286</ele>
        <time>2015-09-05T12:41:04Z</time>
      </trkpt>
      <trkpt lat="44.08086" lon="4.32043">
        <ele>271.547211</ele>
        <time>2015-09-05T12:42:56Z</time>
      </trkpt>
      <trkpt lat="44.08131" lon="4.32058">
        <ele>271.429352</ele>
        <time>2015-09-05T12:43:12Z</time>
      </trkpt>
      <trkpt lat="44.08167" lon="4.32098">
        <ele>271.442505</ele>
        <time>2015-09-05T12:43:25Z</time>
      </trkpt>
      <trkpt lat="44.08184" lon="4.32157">
        <ele>270.489349</ele>
        <time>2015-09-05T12:43:39Z</time>
      </trkpt>
      <trkpt lat="44.08181" lon="4.32221">
        <ele>271.07251</ele>
        <time>2015-09-05T12:44:08Z</time>
      </trkpt>
      <trkpt lat="44.08192" lon="4.32285">
        <ele>272.716278</ele>
        <time>2015-09-05T12:44:33Z</time>
      </trkpt>
      <trkpt lat="44.08207" lon="4.32346">
        <ele>272.107513</ele>
        <time>2015-09-05T12:44:47Z</time>
      </trkpt>
      <trkpt lat="44.08219" lon="4.32406">
        <ele>271.668976</ele>
        <time>2015-09-05T12:45:00Z</time>
      </trkpt>
      <trkpt lat="44.08223" lon="4.32473">
        <ele>271.014893</ele>
        <time>2015-09-05T12:45:16Z</time>
      </trkpt>
      <trkpt lat="44.0824" lon="4.32529">
        <ele>270.347778</ele>
        <time>2015-09-05T12:45:29Z</time>
      </trkpt>
      <trkpt lat="44.08251" lon="4.32579">
        <ele>270.462097</ele>
        <time>2015-09-05T12:45:57Z</time>
      </trkpt>
      <trkpt lat="44.08207" lon="4.32599">
        <ele>269.334991</ele>
        <time>2015-09-05T12:46:07Z</time>
      </trkpt>
      <trkpt lat="44.08177" lon="4.3265">
        <ele>269.813507</ele>
        <time>2015-09-05T12:46:23Z</time>
      </trkpt>
      <trkpt lat="44.08177" lon="4.32716">
        <ele>272.423004</ele>
        <time>2015-09-05T12:46:40Z</time>
      </trkpt>
      <trkpt lat="44.08166" lon="4.32779">
        <ele>272.541931</ele>
        <time>2015-09-05T12:46:57Z</time>
      </trkpt>
      <trkpt lat="44.08127" lon="4.32821">
        <ele>270.602997</ele>
        <time>2015-09-05T12:47:10Z</time>
      </trkpt>
      <trkpt lat="44.0809" lon="4.32867">
        <ele>270.092072</ele>
        <time>2015-09-05T12:47:21Z</time>
      </trkpt>
      <trkpt lat="44.08056" lon="4.32913">
        <ele>270.570984</ele>
        <time>2015-09-05T12:47:34Z</time>
      </trkpt>
      <trkpt lat="44.08019" lon="4.32952">
        <ele>269.936493</ele>
        <time>2015-09-05T12:47:45Z</time>
      </trkpt>
      <trkpt lat="44.07985" lon="4.32999">
        <ele>272.523407</ele>
        <time>2015-09-05T12:47:58Z</time>
      </trkpt>
      <trkpt lat="44.07956" lon="4.33053">
        <ele>273.491241</ele>
        <time>2015-09-05T12:48:15Z</time>
      </trkpt>
      <trkpt lat="44.07917" lon="4.33081">
        <ele>274.04126</ele>
        <time>2015-09-05T12:48:35Z</time>
      </trkpt>
      <trkpt lat="44.07883" lon="4.3304">
        <ele>278.579987</ele>
        <time>2015-09-05T12:49:11Z</time>
      </trkpt>
      <trkpt lat="44.07867" lon="4.32995">
        <ele>279.632507</ele>
        <time>2015-09-05T12:49:37Z</time>
      </trkpt>
      <trkpt lat="44.0782" lon="4.32991">
        <ele>276.003113</ele>
        <time>2015-09-05T12:49:54Z</time>
      </trkpt>
      <trkpt lat="44.07779" lon="4.32965">
        <ele>273.783905</ele>
        <time>2015-09-05T12:50:08Z</time>
      </trkpt>
      <trkpt lat="44.07761" lon="4.32908">
        <ele>270.596619</ele>
        <time>2015-09-05T12:50:22Z</time>
      </trkpt>
      <trkpt lat="44.07731" lon="4.3286">
        <ele>266.460205</ele>
        <time>2015-09-05T12:50:32Z</time>
      </trkpt>
      <trkpt lat="44.07639" lon="4.32859">
        <ele>256.792786</ele>
        <time>2015-09-05T12:50:55Z</time>
      </trkpt>
      <trkpt lat="44.07608" lon="4.32906">
        <ele>252.837631</ele>
        <time>2015-09-05T12:51:12Z</time>
      </trkpt>
      <trkpt lat="44.07569" lon="4.32933">
        <ele>245.87886</ele>
        <time>2015-09-05T12:51:35Z</time>
      </trkpt>
      <trkpt lat="44.07544" lon="4.32895">
        <ele>244.007996</ele>
        <time>2015-09-05T12:55:01Z</time>
      </trkpt>
      <trkpt lat="44.07497" lon="4.32906">
        <ele>241.193237</ele>
        <time>2015-09-05T12:55:14Z</time>
      </trkpt>
      <trkpt lat="44.07457" lon="4.32945">
        <ele>235.817307</ele>
        <time>2015-09-05T12:55:22Z</time>
      </trkpt>
      <trkpt lat="44.07413" lon="4.32933">
        <ele>230.825119</ele>
        <time>2015-09-05T12:55:32Z</time>
      </trkpt>
      <trkpt lat="44.07372" lon="4.32926">
        <ele>224.615631</ele>
        <time>2015-09-05T12:55:43Z</time>
      </trkpt>
      <trkpt lat="44.07351" lon="4.32976">
        <ele>219.47496</ele>
        <time>2015-09-05T12:55:53Z</time>
      </trkpt>
      <trkpt lat="44.07319" lon="4.3301">
        <ele>213.047501</ele>
        <time>2015-09-05T12:56:03Z</time>
      </trkpt>
      <trkpt lat="44.07301" lon="4.32958">
        <ele>212.566116</ele>
        <time>2015-09-05T12:56:13Z</time>
      </trkpt>
      <trkpt lat="44.07289" lon="4.32909">
        <ele>212.054306</ele>
        <time>2015-09-05T12:56:29Z</time>
      </trkpt>
      <trkpt lat="44.07215" lon="4.32926">
        <ele>207.212402</ele>
        <time>2015-09-05T12:57:48Z</time>
      </trkpt>
      <trkpt lat="44.07227" lon="4.32993">
        <ele>206.727142</ele>
        <time>2015-09-05T12:57:57Z</time>
      </trkpt>
      <trkpt lat="44.07243" lon="4.33056">
        <ele>206.583038</ele>
        <time>2015-09-05T12:58:05Z</time>
      </trkpt>
      <trkpt lat="44.07247" lon="4.33119">
        <ele>207.066849</ele>
        <time>2015-09-05T12:58:16Z</time>
      </trkpt>
      <trkpt lat="44.07241" lon="4.33184">
        <ele>208.440002</ele>
        <time>2015-09-05T12:58:27Z</time>
      </trkpt>
      <trkpt lat="44.07232" lon="4.33249">
        <ele>209.155365</ele>
        <time>2015-09-05T12:58:38Z</time>
      </trkpt>
      <trkpt lat="44.07229" lon="4.33313">
        <ele>206.19751</ele>
        <time>2015-09-05T12:58:58Z</time>
      </trkpt>
      <trkpt lat="44.07224" lon="4.33375">
        <ele>201.612503</ele>
        <time>2015-09-05T12:59:08Z</time>
      </trkpt>
      <trkpt lat="44.07193" lon="4.33428">
        <ele>197.931244</ele>
        <time>2015-09-05T12:59:14Z</time>
      </trkpt>
      <trkpt lat="44.07162" lon="4.33492">
        <ele>196.254318</ele>
        <time>2015-09-05T12:59:20Z</time>
      </trkpt>
      <trkpt lat="44.07141" lon="4.33547">
        <ele>191.933365</ele>
        <time>2015-09-05T12:59:25Z</time>
      </trkpt>
      <trkpt lat="44.07112" lon="4.33602">
        <ele>190.091064</ele>
        <time>2015-09-05T12:59:31Z</time>
      </trkpt>
      <trkpt lat="44.07079" lon="4.3372">
        <ele>187.74588</ele>
        <time>2015-09-05T12:59:52Z</time>
      </trkpt>
      <trkpt lat="44.07067" lon="4.33783">
        <ele>187.321091</ele>
        <time>2015-09-05T13:00:01Z</time>
      </trkpt>
      <trkpt lat="44.07059" lon="4.33844">
        <ele>186.082016</ele>
        <time>2015-09-05T13:00:12Z</time>
      </trkpt>
      <trkpt lat="44.07066" lon="4.33909">
        <ele>184.204788</ele>
        <time>2015-09-05T13:00:24Z</time>
      </trkpt>
      <trkpt lat="44.07028" lon="4.33916">
        <ele>184.264999</ele>
        <time>2015-09-05T13:00:46Z</time>
      </trkpt>
      <trkpt lat="44.06982" lon="4.33909">
        <ele>187.900436</ele>
        <time>2015-09-05T13:01:02Z</time>
      </trkpt>
      <trkpt lat="44.06935" lon="4.3391">
        <ele>191.794495</ele>
        <time>2015-09-05T13:01:22Z</time>
      </trkpt>
      <trkpt lat="44.0689" lon="4.33898">
        <ele>195.265152</ele>
        <time>2015-09-05T13:01:43Z</time>
      </trkpt>
      <trkpt lat="44.06848" lon="4.33876">
        <ele>197.483749</ele>
        <time>2015-09-05T13:02:05Z</time>
      </trkpt>
      <trkpt lat="44.06838" lon="4.33823">
        <ele>206.106247</ele>
        <time>2015-09-05T13:02:34Z</time>
      </trkpt>
      <trkpt lat="44.06842" lon="4.3376">
        <ele>214.627167</ele>
        <time>2015-09-05T13:03:09Z</time>
      </trkpt>
      <trkpt lat="44.06815" lon="4.33707">
        <ele>217.024994</ele>
        <time>2015-09-05T13:03:44Z</time>
      </trkpt>
      <trkpt lat="44.06804" lon="4.33648">
        <ele>220.252777</ele>
        <time>2015-09-05T13:04:18Z</time>
      </trkpt>
      <trkpt lat="44.06773" lon="4.33688">
        <ele>221.971497</ele>
        <time>2015-09-05T13:04:49Z</time>
      </trkpt>
      <trkpt lat="44.06752" lon="4.33742">
        <ele>222.549057</ele>
        <time>2015-09-05T13:05:40Z</time>
      </trkpt>
      <trkpt lat="44.06712" lon="4.33772">
        <ele>220.512863</ele>
        <time>2015-09-05T13:05:56Z</time>
      </trkpt>
      <trkpt lat="44.06665" lon="4.33784">
        <ele>220.37056</ele>
        <time>2015-09-05T13:06:07Z</time>
      </trkpt>
      <trkpt lat="44.06618" lon="4.33768">
        <ele>222.789505</ele>
        <time>2015-09-05T13:06:18Z</time>
      </trkpt>
      <trkpt lat="44.06576" lon="4.33742">
        <ele>223.099594</ele>
        <time>2015-09-05T13:06:31Z</time>
      </trkpt>
      <trkpt lat="44.06534" lon="4.33718">
        <ele>226.828644</ele>
        <time>2015-09-05T13:06:46Z</time>
      </trkpt>
      <trkpt lat="44.06444" lon="4.3366">
        <ele>222.889801</ele>
        <time>2015-09-05T13:07:09Z</time>
      </trkpt>
      <trkpt lat="44.06402" lon="4.33635">
        <ele>222.001816</ele>
        <time>2015-09-05T13:07:18Z</time>
      </trkpt>
      <trkpt lat="44.06358" lon="4.33613">
        <ele>219.84935</ele>
        <time>2015-09-05T13:07:26Z</time>
      </trkpt>
      <trkpt lat="44.06316" lon="4.33581">
        <ele>218.672501</ele>
        <time>2015-09-05T13:07:34Z</time>
      </trkpt>
      <trkpt lat="44.06278" lon="4.33541">
        <ele>216.5802</ele>
        <time>2015-09-05T13:07:43Z</time>
      </trkpt>
      <trkpt lat="44.06232" lon="4.33513">
        <ele>215.391006</ele>
        <time>2015-09-05T13:07:51Z</time>
      </trkpt>
      <trkpt lat="44.06182" lon="4.33495">
        <ele>211.288208</ele>
        <time>2015-09-05T13:08:00Z</time>
      </trkpt>
      <trkpt lat="44.06132" lon="4.33478">
        <ele>206.863632</ele>
        <time>2015-09-05T13:08:08Z</time>
      </trkpt>
      <trkpt lat="44.06086" lon="4.33455">
        <ele>207.489532</ele>
        <time>2015-09-05T13:08:16Z</time>
      </trkpt>
      <trkpt lat="44.06039" lon="4.33475">
        <ele>200.858902</ele>
        <time>2015-09-05T13:08:24Z</time>
      </trkpt>
      <trkpt lat="44.05999" lon="4.33511">
        <ele>197.864273</ele>
        <time>2015-09-05T13:08:31Z</time>
      </trkpt>
      <trkpt lat="44.0599" lon="4.3357">
        <ele>195.924042</ele>
        <time>2015-09-05T13:08:39Z</time>
      </trkpt>
      <trkpt lat="44.06021" lon="4.33619">
        <ele>194.10257</ele>
        <time>2015-09-05T13:08:47Z</time>
      </trkpt>
      <trkpt lat="44.06024" lon="4.33683">
        <ele>192.736633</ele>
        <time>2015-09-05T13:08:57Z</time>
      </trkpt>
      <trkpt lat="44.06016" lon="4.3375">
        <ele>186.223785</ele>
        <time>2015-09-05T13:09:07Z</time>
      </trkpt>
      <trkpt lat="44.0599" lon="4.33806">
        <ele>180.27594</ele>
        <time>2015-09-05T13:09:15Z</time>
      </trkpt>
      <trkpt lat="44.05947" lon="4.33821">
        <ele>179.304871</ele>
        <time>2015-09-05T13:09:25Z</time>
      </trkpt>
      <trkpt lat="44.05902" lon="4.33809">
        <ele>179.851471</ele>
        <time>2015-09-05T13:09:33Z</time>
      </trkpt>
      <trkpt lat="44.05803" lon="4.33829">
        <ele>167.300507</ele>
        <time>2015-09-05T13:09:47Z</time>
      </trkpt>
      <trkpt lat="44.05775" lon="4.33847">
        <ele>164.435257</ele>
        <time>2015-09-05T13:12:15Z</time>
      </trkpt>
      <trkpt lat="44.05776" lon="4.33871">
        <ele>167.481003</ele>
        <time>2015-09-05T13:27:12Z</time>
      </trkpt>
      <trkpt lat="44.0575" lon="4.33927">
        <ele>173.503464</ele>
        <time>2015-09-05T13:27:36Z</time>
      </trkpt>
      <trkpt lat="44.05729" lon="4.33989">
        <ele>176.906769</ele>
        <time>2015-09-05T13:28:00Z</time>
      </trkpt>
      <trkpt lat="44.05721" lon="4.3406">
        <ele>181.267502</ele>
        <time>2015-09-05T13:28:23Z</time>
      </trkpt>
      <trkpt lat="44.0572" lon="4.34126">
        <ele>185.324997</ele>
        <time>2015-09-05T13:28:45Z</time>
      </trkpt>
      <trkpt lat="44.05682" lon="4.34161">
        <ele>179.501068</ele>
        <time>2015-09-05T13:28:59Z</time>
      </trkpt>
      <trkpt lat="44.0568" lon="4.34226">
        <ele>182.818085</ele>
        <time>2015-09-05T13:29:17Z</time>
      </trkpt>
      <trkpt lat="44.05671" lon="4.3429">
        <ele>183.027206</ele>
        <time>2015-09-05T13:29:29Z</time>
      </trkpt>
      <trkpt lat="44.05646" lon="4.34348">
        <ele>184.13266</ele>
        <time>2015-09-05T13:29:42Z</time>
      </trkpt>
      <trkpt lat="44.05625" lon="4.34408">
        <ele>185.268738</ele>
        <time>2015-09-05T13:29:59Z</time>
      </trkpt>
      <trkpt lat="44.05625" lon="4.34411">
        <ele>185.305359</ele>
        <time>2015-09-05T13:30:33Z</time>
      </trkpt>
      <trkpt lat="44.05618" lon="4.34473">
        <ele>184.660004</ele>
        <time>2015-09-05T13:30:55Z</time>
      </trkpt>
      <trkpt lat="44.05618" lon="4.3454">
        <ele>182.374451</ele>
        <time>2015-09-05T13:31:05Z</time>
      </trkpt>
      <trkpt lat="44.05628" lon="4.34667">
        <ele>177.034943</ele>
        <time>2015-09-05T13:31:18Z</time>
      </trkpt>
      <trkpt lat="44.05632" lon="4.34731">
        <ele>174.527496</ele>
        <time>2015-09-05T13:31:24Z</time>
      </trkpt>
      <trkpt lat="44.05628" lon="4.348">
        <ele>173.993942</ele>
        <time>2015-09-05T13:31:31Z</time>
      </trkpt>
      <trkpt lat="44.05622" lon="4.3487">
        <ele>176.362976</ele>
        <time>2015-09-05T13:31:40Z</time>
      </trkpt>
      <trkpt lat="44.05618" lon="4.34938">
        <ele>178.775345</ele>
        <time>2015-09-05T13:31:51Z</time>
      </trkpt>
      <trkpt lat="44.05612" lon="4.35008">
        <ele>180.437973</ele>
        <time>2015-09-05T13:32:04Z</time>
      </trkpt>
      <trkpt lat="44.05597" lon="4.35076">
        <ele>181.471603</ele>
        <time>2015-09-05T13:32:17Z</time>
      </trkpt>
      <trkpt lat="44.0558" lon="4.35143">
        <ele>179.705002</ele>
        <time>2015-09-05T13:32:29Z</time>
      </trkpt>
      <trkpt lat="44.05571" lon="4.3521">
        <ele>178.612793</ele>
        <time>2015-09-05T13:32:37Z</time>
      </trkpt>
      <trkpt lat="44.05559" lon="4.35272">
        <ele>176.766754</ele>
        <time>2015-09-05T13:32:46Z</time>
      </trkpt>
      <trkpt lat="44.0555" lon="4.35339">
        <ele>175.207504</ele>
        <time>2015-09-05T13:32:56Z</time>
      </trkpt>
      <trkpt lat="44.05553" lon="4.35403">
        <ele>172.177505</ele>
        <time>2015-09-05T13:33:04Z</time>
      </trkpt>
      <trkpt lat="44.05544" lon="4.35536">
        <ele>165.585007</ele>
        <time>2015-09-05T13:33:17Z</time>
      </trkpt>
      <trkpt lat="44.05549" lon="4.35603">
        <ele>162.363358</ele>
        <time>2015-09-05T13:33:23Z</time>
      </trkpt>
      <trkpt lat="44.05535" lon="4.35676">
        <ele>158.237885</ele>
        <time>2015-09-05T13:33:29Z</time>
      </trkpt>
      <trkpt lat="44.05529" lon="4.35742">
        <ele>154.82251</ele>
        <time>2015-09-05T13:33:34Z</time>
      </trkpt>
      <trkpt lat="44.05534" lon="4.35808">
        <ele>151.700302</ele>
        <time>2015-09-05T13:33:39Z</time>
      </trkpt>
      <trkpt lat="44.05531" lon="4.35873">
        <ele>147.720963</ele>
        <time>2015-09-05T13:33:46Z</time>
      </trkpt>
      <trkpt lat="44.05487" lon="4.3591">
        <ele>142.358078</ele>
        <time>2015-09-05T13:33:56Z</time>
      </trkpt>
      <trkpt lat="44.05468" lon="4.35958">
        <ele>137.405228</ele>
        <time>2015-09-05T13:34:05Z</time>
      </trkpt>
      <trkpt lat="44.05475" lon="4.36025">
        <ele>133.237442</ele>
        <time>2015-09-05T13:34:19Z</time>
      </trkpt>
      <trkpt lat="44.05475" lon="4.36092">
        <ele>127.1175</ele>
        <time>2015-09-05T13:34:31Z</time>
      </trkpt>
      <trkpt lat="44.05436" lon="4.36135">
        <ele>121.57029</ele>
        <time>2015-09-05T13:34:42Z</time>
      </trkpt>
      <trkpt lat="44.05387" lon="4.36141">
        <ele>120.212463</ele>
        <time>2015-09-05T13:34:53Z</time>
      </trkpt>
      <trkpt lat="44.05348" lon="4.36108">
        <ele>120.855293</ele>
        <time>2015-09-05T13:35:04Z</time>
      </trkpt>
      <trkpt lat="44.0533" lon="4.36063">
        <ele>121.418777</ele>
        <time>2015-09-05T13:38:05Z</time>
      </trkpt>
      <trkpt lat="44.05329" lon="4.36057">
        <ele>121.737877</ele>
        <time>2015-09-05T13:38:38Z</time>
      </trkpt>
      <trkpt lat="44.05286" lon="4.36038">
        <ele>121.599998</ele>
        <time>2015-09-05T13:38:59Z</time>
      </trkpt>
      <trkpt lat="44.05268" lon="4.36086">
        <ele>119.940926</ele>
        <time>2015-09-05T13:39:14Z</time>
      </trkpt>
      <trkpt lat="44.0527" lon="4.3615">
        <ele>124.384895</ele>
        <time>2015-09-05T13:39:35Z</time>
      </trkpt>
      <trkpt lat="44.05263" lon="4.36219">
        <ele>129.2789</ele>
        <time>2015-09-05T13:39:54Z</time>
      </trkpt>
      <trkpt lat="44.05249" lon="4.3629">
        <ele>130.859421</ele>
        <time>2015-09-05T13:40:11Z</time>
      </trkpt>
      <trkpt lat="44.05231" lon="4.3636">
        <ele>131.970627</ele>
        <time>2015-09-05T13:40:27Z</time>
      </trkpt>
      <trkpt lat="44.05222" lon="4.36427">
        <ele>133.899841</ele>
        <time>2015-09-05T13:40:45Z</time>
      </trkpt>
      <trkpt lat="44.05218" lon="4.36498">
        <ele>135.306046</ele>
        <time>2015-09-05T13:41:05Z</time>
      </trkpt>
      <trkpt lat="44.05207" lon="4.36569">
        <ele>137.688446</ele>
        <time>2015-09-05T13:41:24Z</time>
      </trkpt>
      <trkpt lat="44.05189" lon="4.36639">
        <ele>141.342117</ele>
        <time>2015-09-05T13:41:45Z</time>
      </trkpt>
      <trkpt lat="44.05154" lon="4.36696">
        <ele>144.880493</ele>
        <time>2015-09-05T13:42:10Z</time>
      </trkpt>
      <trkpt lat="44.05125" lon="4.36756">
        <ele>149.876846</ele>
        <time>2015-09-05T13:42:42Z</time>
      </trkpt>
      <trkpt lat="44.05121" lon="4.36831">
        <ele>155.084</ele>
        <time>2015-09-05T13:43:23Z</time>
      </trkpt>
      <trkpt lat="44.05124" lon="4.36909">
        <ele>158.057724</ele>
        <time>2015-09-05T13:46:48Z</time>
      </trkpt>
      <trkpt lat="44.05122" lon="4.36981">
        <ele>157.940201</ele>
        <time>2015-09-05T13:47:04Z</time>
      </trkpt>
      <trkpt lat="44.051" lon="4.37042">
        <ele>153.634201</ele>
        <time>2015-09-05T13:47:20Z</time>
      </trkpt>
      <trkpt lat="44.05093" lon="4.37112">
        <ele>151.682312</ele>
        <time>2015-09-05T13:47:32Z</time>
      </trkpt>
      <trkpt lat="44.05115" lon="4.3717">
        <ele>152.520004</ele>
        <time>2015-09-05T13:47:45Z</time>
      </trkpt>
      <trkpt lat="44.05128" lon="4.37229">
        <ele>152.274017</ele>
        <time>2015-09-05T13:47:57Z</time>
      </trkpt>
      <trkpt lat="44.05152" lon="4.37278">
        <ele>152.588745</ele>
        <time>2015-09-05T13:52:40Z</time>
      </trkpt>
      <trkpt lat="44.05142" lon="4.37265">
        <ele>152.25</ele>
        <time>2015-09-05T13:53:55Z</time>
      </trkpt>
      <trkpt lat="44.05133" lon="4.37322">
        <ele>148.882248</ele>
        <time>2015-09-05T13:54:17Z</time>
      </trkpt>
      <trkpt lat="44.05172" lon="4.3736">
        <ele>149.866608</ele>
        <time>2015-09-05T13:54:31Z</time>
      </trkpt>
      <trkpt lat="44.05214" lon="4.37391">
        <ele>151.919189</ele>
        <time>2015-09-05T13:54:46Z</time>
      </trkpt>
      <trkpt lat="44.05244" lon="4.37439">
        <ele>152.378754</ele>
        <time>2015-09-05T13:55:10Z</time>
      </trkpt>
      <trkpt lat="44.05257" lon="4.37503">
        <ele>152.613754</ele>
        <time>2015-09-05T13:55:27Z</time>
      </trkpt>
      <trkpt lat="44.05276" lon="4.3755">
        <ele>153.546204</ele>
        <time>2015-09-05T13:55:45Z</time>
      </trkpt>
      <trkpt lat="44.05307" lon="4.37669">
        <ele>153.53125</ele>
        <time>2015-09-05T13:56:19Z</time>
      </trkpt>
      <trkpt lat="44.0534" lon="4.37718">
        <ele>154.65538</ele>
        <time>2015-09-05T13:56:35Z</time>
      </trkpt>
      <trkpt lat="44.05398" lon="4.37823">
        <ele>155.008591</ele>
        <time>2015-09-05T13:57:06Z</time>
      </trkpt>
      <trkpt lat="44.05409" lon="4.37885">
        <ele>154.697495</ele>
        <time>2015-09-05T13:57:19Z</time>
      </trkpt>
      <trkpt lat="44.05415" lon="4.3795">
        <ele>154.450607</ele>
        <time>2015-09-05T13:57:30Z</time>
      </trkpt>
      <trkpt lat="44.05423" lon="4.38014">
        <ele>155.528748</ele>
        <time>2015-09-05T13:57:40Z</time>
      </trkpt>
      <trkpt lat="44.05436" lon="4.38079">
        <ele>157.474075</ele>
        <time>2015-09-05T13:57:50Z</time>
      </trkpt>
      <trkpt lat="44.05443" lon="4.38146">
        <ele>157.878464</ele>
        <time>2015-09-05T13:58:01Z</time>
      </trkpt>
      <trkpt lat="44.05457" lon="4.38207">
        <ele>158.270004</ele>
        <time>2015-09-05T13:58:14Z</time>
      </trkpt>
      <trkpt lat="44.05463" lon="4.38251">
        <ele>158.570007</ele>
        <time>2015-09-05T13:58:34Z</time>
      </trkpt>
      <trkpt lat="44.05505" lon="4.38278">
        <ele>160.578751</ele>
        <time>2015-09-05T13:59:02Z</time>
      </trkpt>
      <trkpt lat="44.05544" lon="4.38312">
        <ele>164.421921</ele>
        <time>2015-09-05T13:59:29Z</time>
      </trkpt>
      <trkpt lat="44.0559" lon="4.38329">
        <ele>169.313263</ele>
        <time>2015-09-05T14:00:04Z</time>
      </trkpt>
      <trkpt lat="44.05615" lon="4.38384">
        <ele>172.604996</ele>
        <time>2015-09-05T14:00:37Z</time>
      </trkpt>
      <trkpt lat="44.05641" lon="4.38435">
        <ele>174.612823</ele>
        <time>2015-09-05T14:03:20Z</time>
      </trkpt>
      <trkpt lat="44.05681" lon="4.38466">
        <ele>177.044006</ele>
        <time>2015-09-05T14:03:37Z</time>
      </trkpt>
      <trkpt lat="44.05717" lon="4.38506">
        <ele>179.303436</ele>
        <time>2015-09-05T14:03:57Z</time>
      </trkpt>
      <trkpt lat="44.05754" lon="4.38541">
        <ele>181.074997</ele>
        <time>2015-09-05T14:04:17Z</time>
      </trkpt>
      <trkpt lat="44.0577" lon="4.38602">
        <ele>179.537506</ele>
        <time>2015-09-05T14:04:33Z</time>
      </trkpt>
      <trkpt lat="44.05789" lon="4.38663">
        <ele>178.226028</ele>
        <time>2015-09-05T14:04:54Z</time>
      </trkpt>
      <trkpt lat="44.05819" lon="4.38705">
        <ele>178.890411</ele>
        <time>2015-09-05T14:05:12Z</time>
      </trkpt>
      <trkpt lat="44.05862" lon="4.38701">
        <ele>184.390244</ele>
        <time>2015-09-05T14:08:18Z</time>
      </trkpt>
      <trkpt lat="44.05908" lon="4.38695">
        <ele>190.116531</ele>
        <time>2015-09-05T14:08:48Z</time>
      </trkpt>
      <trkpt lat="44.05954" lon="4.38684">
        <ele>196.310593</ele>
        <time>2015-09-05T14:09:21Z</time>
      </trkpt>
      <trkpt lat="44.05996" lon="4.38662">
        <ele>201.807495</ele>
        <time>2015-09-05T14:09:45Z</time>
      </trkpt>
      <trkpt lat="44.06043" lon="4.3866">
        <ele>207.803009</ele>
        <time>2015-09-05T14:10:13Z</time>
      </trkpt>
      <trkpt lat="44.06089" lon="4.38669">
        <ele>212.829269</ele>
        <time>2015-09-05T14:10:43Z</time>
      </trkpt>
      <trkpt lat="44.06133" lon="4.38683">
        <ele>215.652496</ele>
        <time>2015-09-05T14:11:15Z</time>
      </trkpt>
      <trkpt lat="44.06175" lon="4.38704">
        <ele>218.007507</ele>
        <time>2015-09-05T14:11:52Z</time>
      </trkpt>
      <trkpt lat="44.06221" lon="4.38711">
        <ele>223.518234</ele>
        <time>2015-09-05T14:12:27Z</time>
      </trkpt>
      <trkpt lat="44.06266" lon="4.38706">
        <ele>230.014496</ele>
        <time>2015-09-05T14:13:02Z</time>
      </trkpt>
      <trkpt lat="44.0631" lon="4.38718">
        <ele>235.039993</ele>
        <time>2015-09-05T14:13:38Z</time>
      </trkpt>
      <trkpt lat="44.06355" lon="4.3871">
        <ele>241.6586</ele>
        <time>2015-09-05T14:14:06Z</time>
      </trkpt>
      <trkpt lat="44.06392" lon="4.38727">
        <ele>244.761871</ele>
        <time>2015-09-05T14:14:33Z</time>
      </trkpt>
      <trkpt lat="44.06434" lon="4.3875">
        <ele>248.376877</ele>
        <time>2015-09-05T14:15:00Z</time>
      </trkpt>
      <trkpt lat="44.0648" lon="4.38754">
        <ele>251.147583</ele>
        <time>2015-09-05T14:15:23Z</time>
      </trkpt>
      <trkpt lat="44.06526" lon="4.38737">
        <ele>254.026306</ele>
        <time>2015-09-05T14:15:44Z</time>
      </trkpt>
      <trkpt lat="44.06567" lon="4.38712">
        <ele>257.262909</ele>
        <time>2015-09-05T14:16:03Z</time>
      </trkpt>
      <trkpt lat="44.06612" lon="4.38689">
        <ele>260.854614</ele>
        <time>2015-09-05T14:16:19Z</time>
      </trkpt>
      <trkpt lat="44.06659" lon="4.3869">
        <ele>262.151825</ele>
        <time>2015-09-05T14:16:35Z</time>
      </trkpt>
      <trkpt lat="44.06704" lon="4.38703">
        <ele>263.76001</ele>
        <time>2015-09-05T14:16:52Z</time>
      </trkpt>
      <trkpt lat="44.06749" lon="4.38718">
        <ele>265.335815</ele>
        <time>2015-09-05T14:17:10Z</time>
      </trkpt>
      <trkpt lat="44.06795" lon="4.38727">
        <ele>266</ele>
        <time>2015-09-05T14:17:26Z</time>
      </trkpt>
      <trkpt lat="44.06825" lon="4.38759">
        <ele>266.304993</ele>
        <time>2015-09-05T14:17:44Z</time>
      </trkpt>
      <trkpt lat="44.06848" lon="4.38885">
        <ele>266.886383</ele>
        <time>2015-09-05T14:18:08Z</time>
      </trkpt>
      <trkpt lat="44.06857" lon="4.38947">
        <ele>267</ele>
        <time>2015-09-05T14:18:19Z</time>
      </trkpt>
      <trkpt lat="44.06892" lon="4.39141">
        <ele>265.02124</ele>
        <time>2015-09-05T14:18:47Z</time>
      </trkpt>
      <trkpt lat="44.06914" lon="4.39277">
        <ele>262.231262</ele>
        <time>2015-09-05T14:19:03Z</time>
      </trkpt>
      <trkpt lat="44.06947" lon="4.39469">
        <ele>264.592285</ele>
        <time>2015-09-05T14:19:35Z</time>
      </trkpt>
      <trkpt lat="44.0696" lon="4.39531">
        <ele>261.50116</ele>
        <time>2015-09-05T14:19:47Z</time>
      </trkpt>
      <trkpt lat="44.0698" lon="4.39583">
        <ele>258.080017</ele>
        <time>2015-09-05T14:20:14Z</time>
      </trkpt>
      <trkpt lat="44.06976" lon="4.3964">
        <ele>257.387024</ele>
        <time>2015-09-05T14:20:33Z</time>
      </trkpt>
      <trkpt lat="44.06997" lon="4.39765">
        <ele>266.232117</ele>
        <time>2015-09-05T14:21:18Z</time>
      </trkpt>
      <trkpt lat="44.07016" lon="4.39891">
        <ele>271</ele>
        <time>2015-09-05T14:22:00Z</time>
      </trkpt>
      <trkpt lat="44.07027" lon="4.39954">
        <ele>270.811432</ele>
        <time>2015-09-05T14:22:17Z</time>
      </trkpt>
      <trkpt lat="44.0704" lon="4.40018">
        <ele>270.192261</ele>
        <time>2015-09-05T14:22:34Z</time>
      </trkpt>
      <trkpt lat="44.07049" lon="4.40084">
        <ele>269.544403</ele>
        <time>2015-09-05T14:22:48Z</time>
      </trkpt>
      <trkpt lat="44.07071" lon="4.40207">
        <ele>270.561859</ele>
        <time>2015-09-05T14:23:11Z</time>
      </trkpt>
      <trkpt lat="44.07084" lon="4.40272">
        <ele>271</ele>
        <time>2015-09-05T14:23:24Z</time>
      </trkpt>
      <trkpt lat="44.07106" lon="4.40327">
        <ele>270.795013</ele>
        <time>2015-09-05T14:23:36Z</time>
      </trkpt>
      <trkpt lat="44.07123" lon="4.40384">
        <ele>270.463135</ele>
        <time>2015-09-05T14:23:48Z</time>
      </trkpt>
      <trkpt lat="44.0712" lon="4.40448">
        <ele>271.075958</ele>
        <time>2015-09-05T14:24:04Z</time>
      </trkpt>
      <trkpt lat="44.07145" lon="4.40568">
        <ele>271.170776</ele>
        <time>2015-09-05T14:24:28Z</time>
      </trkpt>
      <trkpt lat="44.07137" lon="4.40635">
        <ele>270.877502</ele>
        <time>2015-09-05T14:24:39Z</time>
      </trkpt>
      <trkpt lat="44.07149" lon="4.40692">
        <ele>269.978424</ele>
        <time>2015-09-05T14:24:52Z</time>
      </trkpt>
      <trkpt lat="44.0724" lon="4.40714">
        <ele>270.663757</ele>
        <time>2015-09-05T14:25:23Z</time>
      </trkpt>
      <trkpt lat="44.07286" lon="4.40729">
        <ele>269.917114</ele>
        <time>2015-09-05T14:25:34Z</time>
      </trkpt>
      <trkpt lat="44.0733" lon="4.40746">
        <ele>268.630005</ele>
        <time>2015-09-05T14:25:45Z</time>
      </trkpt>
      <trkpt lat="44.07376" lon="4.40767">
        <ele>267.516235</ele>
        <time>2015-09-05T14:25:57Z</time>
      </trkpt>
      <trkpt lat="44.07419" lon="4.4079">
        <ele>266.206238</ele>
        <time>2015-09-05T14:26:07Z</time>
      </trkpt>
      <trkpt lat="44.07461" lon="4.4082">
        <ele>264.507507</ele>
        <time>2015-09-05T14:26:17Z</time>
      </trkpt>
      <trkpt lat="44.07501" lon="4.40856">
        <ele>262.132507</ele>
        <time>2015-09-05T14:26:27Z</time>
      </trkpt>
      <trkpt lat="44.07618" lon="4.40969">
        <ele>256.144989</ele>
        <time>2015-09-05T14:26:53Z</time>
      </trkpt>
      <trkpt lat="44.07658" lon="4.41011">
        <ele>255.887985</ele>
        <time>2015-09-05T14:27:02Z</time>
      </trkpt>
      <trkpt lat="44.07697" lon="4.41055">
        <ele>256.351013</ele>
        <time>2015-09-05T14:27:11Z</time>
      </trkpt>
      <trkpt lat="44.0773" lon="4.41105">
        <ele>257.318756</ele>
        <time>2015-09-05T14:27:23Z</time>
      </trkpt>
      <trkpt lat="44.07763" lon="4.41156">
        <ele>258.116241</ele>
        <time>2015-09-05T14:27:36Z</time>
      </trkpt>
      <trkpt lat="44.07795" lon="4.41202">
        <ele>258.827515</ele>
        <time>2015-09-05T14:27:51Z</time>
      </trkpt>
      <trkpt lat="44.0783" lon="4.41249">
        <ele>259.561249</ele>
        <time>2015-09-05T14:28:07Z</time>
      </trkpt>
      <trkpt lat="44.07903" lon="4.41329">
        <ele>260.729309</ele>
        <time>2015-09-05T14:28:40Z</time>
      </trkpt>
      <trkpt lat="44.0794" lon="4.41371">
        <ele>261.459991</ele>
        <time>2015-09-05T14:28:58Z</time>
      </trkpt>
      <trkpt lat="44.07997" lon="4.41464">
        <ele>261.966064</ele>
        <time>2015-09-05T14:29:40Z</time>
      </trkpt>
      <trkpt lat="44.0802" lon="4.41518">
        <ele>259.330078</ele>
        <time>2015-09-05T14:29:50Z</time>
      </trkpt>
      <trkpt lat="44.08028" lon="4.41585">
        <ele>257.027405</ele>
        <time>2015-09-05T14:29:59Z</time>
      </trkpt>
      <trkpt lat="44.08045" lon="4.41647">
        <ele>256.063019</ele>
        <time>2015-09-05T14:30:06Z</time>
      </trkpt>
      <trkpt lat="44.0807" lon="4.41702">
        <ele>255.245316</ele>
        <time>2015-09-05T14:30:14Z</time>
      </trkpt>
      <trkpt lat="44.08099" lon="4.41751">
        <ele>254.544998</ele>
        <time>2015-09-05T14:30:24Z</time>
      </trkpt>
      <trkpt lat="44.08156" lon="4.41856">
        <ele>251.592499</ele>
        <time>2015-09-05T14:30:44Z</time>
      </trkpt>
      <trkpt lat="44.08187" lon="4.41907">
        <ele>249.302505</ele>
        <time>2015-09-05T14:30:54Z</time>
      </trkpt>
      <trkpt lat="44.08219" lon="4.41956">
        <ele>247.682495</ele>
        <time>2015-09-05T14:31:03Z</time>
      </trkpt>
      <trkpt lat="44.08251" lon="4.41999">
        <ele>246.756012</ele>
        <time>2015-09-05T14:31:30Z</time>
      </trkpt>
      <trkpt lat="44.08288" lon="4.42034">
        <ele>246.694977</ele>
        <time>2015-09-05T14:31:43Z</time>
      </trkpt>
      <trkpt lat="44.08329" lon="4.42064">
        <ele>246.208755</ele>
        <time>2015-09-05T14:31:57Z</time>
      </trkpt>
      <trkpt lat="44.08367" lon="4.421">
        <ele>245.907501</ele>
        <time>2015-09-05T14:32:09Z</time>
      </trkpt>
      <trkpt lat="44.08406" lon="4.42142">
        <ele>245.657501</ele>
        <time>2015-09-05T14:32:20Z</time>
      </trkpt>
      <trkpt lat="44.08438" lon="4.4219">
        <ele>245.56105</ele>
        <time>2015-09-05T14:32:30Z</time>
      </trkpt>
      <trkpt lat="44.08451" lon="4.42185">
        <ele>245.28392</ele>
        <time>2015-09-05T14:33:08Z</time>
      </trkpt>
      <trkpt lat="44.08469" lon="4.42128">
        <ele>244.011246</ele>
        <time>2015-09-05T14:33:24Z</time>
      </trkpt>
      <trkpt lat="44.08509" lon="4.42117">
        <ele>242.919998</ele>
        <time>2015-09-05T14:33:41Z</time>
      </trkpt>
      <trkpt lat="44.08556" lon="4.42132">
        <ele>242.089996</ele>
        <time>2015-09-05T14:33:57Z</time>
      </trkpt>
      <trkpt lat="44.08559" lon="4.4217">
        <ele>242.59375</ele>
        <time>2015-09-05T14:34:49Z</time>
      </trkpt>
      <trkpt lat="44.08584" lon="4.42155">
        <ele>241.808746</ele>
        <time>2015-09-05T14:45:01Z</time>
      </trkpt>
      <trkpt lat="44.08631" lon="4.42165">
        <ele>240.199966</ele>
        <time>2015-09-05T14:45:22Z</time>
      </trkpt>
      <trkpt lat="44.08678" lon="4.42179">
        <ele>239.057495</ele>
        <time>2015-09-05T14:45:40Z</time>
      </trkpt>
      <trkpt lat="44.08726" lon="4.42188">
        <ele>239.103546</ele>
        <time>2015-09-05T14:45:55Z</time>
      </trkpt>
      <trkpt lat="44.08769" lon="4.42219">
        <ele>239.438248</ele>
        <time>2015-09-05T14:46:10Z</time>
      </trkpt>
      <trkpt lat="44.08813" lon="4.42237">
        <ele>239.181244</ele>
        <time>2015-09-05T14:46:24Z</time>
      </trkpt>
      <trkpt lat="44.08909" lon="4.42238">
        <ele>239.212494</ele>
        <time>2015-09-05T14:46:54Z</time>
      </trkpt>
      <trkpt lat="44.08957" lon="4.4225">
        <ele>239.046265</ele>
        <time>2015-09-05T14:47:10Z</time>
      </trkpt>
      <trkpt lat="44.08988" lon="4.423">
        <ele>238.910568</ele>
        <time>2015-09-05T14:47:26Z</time>
      </trkpt>
      <trkpt lat="44.09038" lon="4.42312">
        <ele>239</ele>
        <time>2015-09-05T14:47:42Z</time>
      </trkpt>
      <trkpt lat="44.09086" lon="4.4232">
        <ele>241.235962</ele>
        <time>2015-09-05T14:47:58Z</time>
      </trkpt>
      <trkpt lat="44.09132" lon="4.42323">
        <ele>244.356003</ele>
        <time>2015-09-05T14:48:15Z</time>
      </trkpt>
      <trkpt lat="44.09176" lon="4.42337">
        <ele>247.371185</ele>
        <time>2015-09-05T14:48:33Z</time>
      </trkpt>
      <trkpt lat="44.0922" lon="4.42349">
        <ele>249.172348</ele>
        <time>2015-09-05T14:48:53Z</time>
      </trkpt>
      <trkpt lat="44.09265" lon="4.42366">
        <ele>252.437958</ele>
        <time>2015-09-05T14:49:13Z</time>
      </trkpt>
      <trkpt lat="44.09309" lon="4.42367">
        <ele>255.10733</ele>
        <time>2015-09-05T14:49:36Z</time>
      </trkpt>
      <trkpt lat="44.09335" lon="4.42315">
        <ele>257.098755</ele>
        <time>2015-09-05T14:50:01Z</time>
      </trkpt>
      <trkpt lat="44.09365" lon="4.42266">
        <ele>259.55249</ele>
        <time>2015-09-05T14:50:26Z</time>
      </trkpt>
      <trkpt lat="44.09391" lon="4.42212">
        <ele>261.554993</ele>
        <time>2015-09-05T14:50:50Z</time>
      </trkpt>
      <trkpt lat="44.0942" lon="4.42163">
        <ele>262.309052</ele>
        <time>2015-09-05T14:51:17Z</time>
      </trkpt>
      <trkpt lat="44.09505" lon="4.42009">
        <ele>260.661224</ele>
        <time>2015-09-05T14:51:56Z</time>
      </trkpt>
      <trkpt lat="44.09527" lon="4.41951">
        <ele>260.148834</ele>
        <time>2015-09-05T14:52:06Z</time>
      </trkpt>
      <trkpt lat="44.09554" lon="4.41892">
        <ele>259.482483</ele>
        <time>2015-09-05T14:52:16Z</time>
      </trkpt>
      <trkpt lat="44.09584" lon="4.41843">
        <ele>259.924988</ele>
        <time>2015-09-05T14:52:25Z</time>
      </trkpt>
      <trkpt lat="44.09609" lon="4.41788">
        <ele>260.035339</ele>
        <time>2015-09-05T14:52:34Z</time>
      </trkpt>
      <trkpt lat="44.09627" lon="4.41728">
        <ele>259.920013</ele>
        <time>2015-09-05T14:52:43Z</time>
      </trkpt>
      <trkpt lat="44.09643" lon="4.41665">
        <ele>259.666168</ele>
        <time>2015-09-05T14:52:53Z</time>
      </trkpt>
      <trkpt lat="44.0966" lon="4.41604">
        <ele>260.154724</ele>
        <time>2015-09-05T14:53:04Z</time>
      </trkpt>
      <trkpt lat="44.09696" lon="4.41482">
        <ele>260.779999</ele>
        <time>2015-09-05T14:53:26Z</time>
      </trkpt>
      <trkpt lat="44.09692" lon="4.41414">
        <ele>259.609558</ele>
        <time>2015-09-05T14:53:36Z</time>
      </trkpt>
      <trkpt lat="44.09694" lon="4.41345">
        <ele>259.554993</ele>
        <time>2015-09-05T14:53:46Z</time>
      </trkpt>
      <trkpt lat="44.0968" lon="4.41281">
        <ele>258.674988</ele>
        <time>2015-09-05T14:53:55Z</time>
      </trkpt>
      <trkpt lat="44.09682" lon="4.41215">
        <ele>258.776093</ele>
        <time>2015-09-05T14:54:04Z</time>
      </trkpt>
      <trkpt lat="44.09693" lon="4.4115">
        <ele>260.23999</ele>
        <time>2015-09-05T14:54:14Z</time>
      </trkpt>
      <trkpt lat="44.09708" lon="4.41089">
        <ele>261.125</ele>
        <time>2015-09-05T14:54:24Z</time>
      </trkpt>
      <trkpt lat="44.09713" lon="4.4096">
        <ele>261.769989</ele>
        <time>2015-09-05T14:54:44Z</time>
      </trkpt>
      <trkpt lat="44.09721" lon="4.40898">
        <ele>262.253052</ele>
        <time>2015-09-05T14:54:54Z</time>
      </trkpt>
      <trkpt lat="44.09728" lon="4.40833">
        <ele>262.201477</ele>
        <time>2015-09-05T14:55:05Z</time>
      </trkpt>
      <trkpt lat="44.09737" lon="4.4077">
        <ele>263.457184</ele>
        <time>2015-09-05T14:55:25Z</time>
      </trkpt>
      <trkpt lat="44.09744" lon="4.40705">
        <ele>266.918121</ele>
        <time>2015-09-05T14:55:46Z</time>
      </trkpt>
      <trkpt lat="44.09757" lon="4.40565">
        <ele>270.122589</ele>
        <time>2015-09-05T14:56:32Z</time>
      </trkpt>
      <trkpt lat="44.09768" lon="4.40498">
        <ele>270.11908</ele>
        <time>2015-09-05T14:56:52Z</time>
      </trkpt>
      <trkpt lat="44.0978" lon="4.40433">
        <ele>271.096252</ele>
        <time>2015-09-05T14:57:09Z</time>
      </trkpt>
      <trkpt lat="44.09792" lon="4.40367">
        <ele>272.589996</ele>
        <time>2015-09-05T14:57:29Z</time>
      </trkpt>
      <trkpt lat="44.09806" lon="4.40301">
        <ele>273.450012</ele>
        <time>2015-09-05T14:57:51Z</time>
      </trkpt>
      <trkpt lat="44.09825" lon="4.4024">
        <ele>273.470001</ele>
        <time>2015-09-05T14:58:07Z</time>
      </trkpt>
      <trkpt lat="44.0985" lon="4.40181">
        <ele>273.450439</ele>
        <time>2015-09-05T14:58:21Z</time>
      </trkpt>
      <trkpt lat="44.0986" lon="4.40113">
        <ele>274.476776</ele>
        <time>2015-09-05T14:58:46Z</time>
      </trkpt>
      <trkpt lat="44.09875" lon="4.40047">
        <ele>276.227509</ele>
        <time>2015-09-05T14:59:06Z</time>
      </trkpt>
      <trkpt lat="44.09894" lon="4.39985">
        <ele>278.950134</ele>
        <time>2015-09-05T14:59:22Z</time>
      </trkpt>
      <trkpt lat="44.09907" lon="4.39921">
        <ele>280.85376</ele>
        <time>2015-09-05T14:59:48Z</time>
      </trkpt>
      <trkpt lat="44.09927" lon="4.39863">
        <ele>283.970001</ele>
        <time>2015-09-05T15:00:15Z</time>
      </trkpt>
      <trkpt lat="44.09942" lon="4.398">
        <ele>285.962494</ele>
        <time>2015-09-05T15:00:41Z</time>
      </trkpt>
      <trkpt lat="44.0996" lon="4.3974">
        <ele>287.190521</ele>
        <time>2015-09-05T15:01:02Z</time>
      </trkpt>
      <trkpt lat="44.09982" lon="4.39702">
        <ele>288.624542</ele>
        <time>2015-09-05T15:01:25Z</time>
      </trkpt>
      <trkpt lat="44.10066" lon="4.39854">
        <ele>289.779205</ele>
        <time>2015-09-05T15:02:56Z</time>
      </trkpt>
      <trkpt lat="44.10093" lon="4.39909">
        <ele>287.375</ele>
        <time>2015-09-05T15:03:14Z</time>
      </trkpt>
      <trkpt lat="44.10117" lon="4.39897">
        <ele>288.779999</ele>
        <time>2015-09-05T15:03:38Z</time>
      </trkpt>
      <trkpt lat="44.10138" lon="4.39839">
        <ele>291.381256</ele>
        <time>2015-09-05T15:04:01Z</time>
      </trkpt>
      <trkpt lat="44.10157" lon="4.3978">
        <ele>292</ele>
        <time>2015-09-05T15:04:22Z</time>
      </trkpt>
      <trkpt lat="44.1018" lon="4.39722">
        <ele>292.297485</ele>
        <time>2015-09-05T15:04:42Z</time>
      </trkpt>
      <trkpt lat="44.10206" lon="4.3967">
        <ele>292.749298</ele>
        <time>2015-09-05T15:04:59Z</time>
      </trkpt>
      <trkpt lat="44.10235" lon="4.39618">
        <ele>292.011261</ele>
        <time>2015-09-05T15:05:14Z</time>
      </trkpt>
      <trkpt lat="44.10251" lon="4.39558">
        <ele>292</ele>
        <time>2015-09-05T15:05:28Z</time>
      </trkpt>
      <trkpt lat="44.10279" lon="4.39595">
        <ele>291.832214</ele>
        <time>2015-09-05T15:05:45Z</time>
      </trkpt>
      <trkpt lat="44.10327" lon="4.39602">
        <ele>291.171234</ele>
        <time>2015-09-05T15:06:02Z</time>
      </trkpt>
      <trkpt lat="44.10365" lon="4.39591">
        <ele>289.588104</ele>
        <time>2015-09-05T15:06:24Z</time>
      </trkpt>
      <trkpt lat="44.10402" lon="4.39556">
        <ele>286.290833</ele>
        <time>2015-09-05T15:06:35Z</time>
      </trkpt>
      <trkpt lat="44.10452" lon="4.39552">
        <ele>281.71402</ele>
        <time>2015-09-05T15:06:45Z</time>
      </trkpt>
      <trkpt lat="44.10501" lon="4.39561">
        <ele>279.586914</ele>
        <time>2015-09-05T15:06:54Z</time>
      </trkpt>
      <trkpt lat="44.10546" lon="4.39588">
        <ele>279.116302</ele>
        <time>2015-09-05T15:07:03Z</time>
      </trkpt>
      <trkpt lat="44.10593" lon="4.39596">
        <ele>276.57843</ele>
        <time>2015-09-05T15:07:15Z</time>
      </trkpt>
      <trkpt lat="44.10639" lon="4.39586">
        <ele>273.264191</ele>
        <time>2015-09-05T15:07:28Z</time>
      </trkpt>
      <trkpt lat="44.10683" lon="4.39582">
        <ele>269.424164</ele>
        <time>2015-09-05T15:07:40Z</time>
      </trkpt>
      <trkpt lat="44.10726" lon="4.39551">
        <ele>267.607361</ele>
        <time>2015-09-05T15:08:00Z</time>
      </trkpt>
      <trkpt lat="44.10766" lon="4.39515">
        <ele>266.519989</ele>
        <time>2015-09-05T15:08:15Z</time>
      </trkpt>
      <trkpt lat="44.10795" lon="4.39462">
        <ele>266.777496</ele>
        <time>2015-09-05T15:08:29Z</time>
      </trkpt>
      <trkpt lat="44.10826" lon="4.39415">
        <ele>267.089996</ele>
        <time>2015-09-05T15:08:42Z</time>
      </trkpt>
      <trkpt lat="44.10864" lon="4.39376">
        <ele>267.039978</ele>
        <time>2015-09-05T15:08:54Z</time>
      </trkpt>
      <trkpt lat="44.10902" lon="4.3934">
        <ele>267.702026</ele>
        <time>2015-09-05T15:09:07Z</time>
      </trkpt>
      <trkpt lat="44.10935" lon="4.3929">
        <ele>268.7901</ele>
        <time>2015-09-05T15:09:19Z</time>
      </trkpt>
      <trkpt lat="44.10962" lon="4.39237">
        <ele>269.78125</ele>
        <time>2015-09-05T15:09:32Z</time>
      </trkpt>
      <trkpt lat="44.10991" lon="4.39186">
        <ele>270.777039</ele>
        <time>2015-09-05T15:09:44Z</time>
      </trkpt>
      <trkpt lat="44.11022" lon="4.39134">
        <ele>271.174164</ele>
        <time>2015-09-05T15:09:57Z</time>
      </trkpt>
      <trkpt lat="44.11056" lon="4.39091">
        <ele>271.752777</ele>
        <time>2015-09-05T15:10:10Z</time>
      </trkpt>
      <trkpt lat="44.11094" lon="4.39054">
        <ele>272.1875</ele>
        <time>2015-09-05T15:10:24Z</time>
      </trkpt>
      <trkpt lat="44.11134" lon="4.39018">
        <ele>273.086487</ele>
        <time>2015-09-05T15:10:37Z</time>
      </trkpt>
      <trkpt lat="44.1118" lon="4.39012">
        <ele>272.23999</ele>
        <time>2015-09-05T15:10:47Z</time>
      </trkpt>
      <trkpt lat="44.11225" lon="4.39">
        <ele>271.652496</ele>
        <time>2015-09-05T15:10:56Z</time>
      </trkpt>
      <trkpt lat="44.1127" lon="4.38987">
        <ele>271.234558</ele>
        <time>2015-09-05T15:11:06Z</time>
      </trkpt>
      <trkpt lat="44.11318" lon="4.38984">
        <ele>271.058746</ele>
        <time>2015-09-05T15:11:19Z</time>
      </trkpt>
      <trkpt lat="44.11364" lon="4.38995">
        <ele>272.274994</ele>
        <time>2015-09-05T15:11:34Z</time>
      </trkpt>
      <trkpt lat="44.11378" lon="4.38956">
        <ele>273.580627</ele>
        <time>2015-09-05T15:11:54Z</time>
      </trkpt>
      <trkpt lat="44.11355" lon="4.389">
        <ele>274.381866</ele>
        <time>2015-09-05T15:12:16Z</time>
      </trkpt>
      <trkpt lat="44.11325" lon="4.38852">
        <ele>274.673157</ele>
        <time>2015-09-05T15:12:33Z</time>
      </trkpt>
      <trkpt lat="44.11325" lon="4.38788">
        <ele>276.920166</ele>
        <time>2015-09-05T15:12:50Z</time>
      </trkpt>
      <trkpt lat="44.11335" lon="4.38724">
        <ele>279.752563</ele>
        <time>2015-09-05T15:13:07Z</time>
      </trkpt>
      <trkpt lat="44.11328" lon="4.3866">
        <ele>280.330841</ele>
        <time>2015-09-05T15:13:27Z</time>
      </trkpt>
      <trkpt lat="44.11332" lon="4.38595">
        <ele>281.652802</ele>
        <time>2015-09-05T15:13:46Z</time>
      </trkpt>
      <trkpt lat="44.11336" lon="4.38533">
        <ele>284.593475</ele>
        <time>2015-09-05T15:14:04Z</time>
      </trkpt>
      <trkpt lat="44.11327" lon="4.38468">
        <ele>288.810242</ele>
        <time>2015-09-05T15:14:23Z</time>
      </trkpt>
      <trkpt lat="44.11365" lon="4.3844">
        <ele>292.881195</ele>
        <time>2015-09-05T15:14:43Z</time>
      </trkpt>
      <trkpt lat="44.11411" lon="4.38435">
        <ele>295.435638</ele>
        <time>2015-09-05T15:15:05Z</time>
      </trkpt>
      <trkpt lat="44.11454" lon="4.38417">
        <ele>297.025574</ele>
        <time>2015-09-05T15:15:24Z</time>
      </trkpt>
      <trkpt lat="44.11499" lon="4.38422">
        <ele>298.109314</ele>
        <time>2015-09-05T15:15:43Z</time>
      </trkpt>
      <trkpt lat="44.11513" lon="4.38427">
        <ele>298.483002</ele>
        <time>2015-09-05T15:16:11Z</time>
      </trkpt>
      <trkpt lat="44.11536" lon="4.38373">
        <ele>299.65155</ele>
        <time>2015-09-05T15:16:36Z</time>
      </trkpt>
      <trkpt lat="44.11556" lon="4.38313">
        <ele>300.759369</ele>
        <time>2015-09-05T15:16:56Z</time>
      </trkpt>
      <trkpt lat="44.11593" lon="4.38195">
        <ele>301</ele>
        <time>2015-09-05T15:17:28Z</time>
      </trkpt>
      <trkpt lat="44.11649" lon="4.3801">
        <ele>300.73999</ele>
        <time>2015-09-05T15:18:04Z</time>
      </trkpt>
      <trkpt lat="44.11708" lon="4.37825">
        <ele>299.271179</ele>
        <time>2015-09-05T15:18:33Z</time>
      </trkpt>
      <trkpt lat="44.11721" lon="4.37762">
        <ele>299.747498</ele>
        <time>2015-09-05T15:18:43Z</time>
      </trkpt>
      <trkpt lat="44.11715" lon="4.37696">
        <ele>299.852417</ele>
        <time>2015-09-05T15:18:55Z</time>
      </trkpt>
      <trkpt lat="44.11677" lon="4.37366">
        <ele>301</ele>
        <time>2015-09-05T15:19:59Z</time>
      </trkpt>
      <trkpt lat="44.11671" lon="4.37301">
        <ele>301.417389</ele>
        <time>2015-09-05T15:20:12Z</time>
      </trkpt>
      <trkpt lat="44.11663" lon="4.37237">
        <ele>301.242493</ele>
        <time>2015-09-05T15:20:49Z</time>
      </trkpt>
      <trkpt lat="44.11665" lon="4.37174">
        <ele>301.977173</ele>
        <time>2015-09-05T15:21:04Z</time>
      </trkpt>
      <trkpt lat="44.11644" lon="4.3713">
        <ele>301.923767</ele>
        <time>2015-09-05T15:21:23Z</time>
      </trkpt>
      <trkpt lat="44.11597" lon="4.37146">
        <ele>301.284973</ele>
        <time>2015-09-05T15:21:39Z</time>
      </trkpt>
      <trkpt lat="44.11556" lon="4.37172">
        <ele>301.009338</ele>
        <time>2015-09-05T15:21:47Z</time>
      </trkpt>
      <trkpt lat="44.11526" lon="4.3714">
        <ele>300.645142</ele>
        <time>2015-09-05T15:22:43Z</time>
      </trkpt>
      <trkpt lat="44.11529" lon="4.37144">
        <ele>300.714447</ele>
        <time>2015-09-05T15:32:00Z</time>
      </trkpt>
    </trkseg>
  </trk>
</gpx>